Time;durP1;ratioP1;P1;durP2;ratioP2;P2;SDS_P1;SDS_P2;PMS_P1;PMS_P2;Temp;Humidity;BMP_temperature;BMP_pressure;BME280_temperature;BME280_humidity;BME280_pressure;Samples;Min_cycle;Max_cycle;Signal;HPM_P1;HPM_P2
2022/09/16 00:00:36;;;;;;;5.53;1.00;;;11.60;99.90;;;;;;5070657;28;20045;-74
2022/09/16 00:03:02;;;;;;;9.68;0.98;;;11.60;99.90;;;;;;5069638;28;20403;-74
2022/09/16 00:05:28;;;;;;;7.55;1.35;;;11.50;99.90;;;;;;5069507;28;20087;-74
2022/09/16 00:07:54;;;;;;;8.95;1.13;;;11.60;99.90;;;;;;5057852;28;20041;-74
2022/09/16 00:10:21;;;;;;;5.63;1.20;;;11.60;99.90;;;;;;5054399;28;20034;-75
2022/09/16 00:12:48;;;;;;;7.55;1.33;;;11.60;99.90;;;;;;5067984;28;20122;-75
2022/09/16 00:15:14;;;;;;;7.05;0.93;;;11.60;99.90;;;;;;5067276;28;20042;-74
2022/09/16 00:17:39;;;;;;;5.70;1.02;;;11.60;99.90;;;;;;5063502;28;20038;-75
2022/09/16 00:20:08;;;;;;;5.97;0.90;;;11.60;99.90;;;;;;5077744;28;20212;-74
2022/09/16 00:22:34;;;;;;;6.15;0.93;;;11.60;99.90;;;;;;5073857;28;20059;-74
2022/09/16 00:25:00;;;;;;;6.90;1.52;;;11.60;99.90;;;;;;5068736;28;20462;-74
2022/09/16 00:27:25;;;;;;;2.67;0.70;;;11.60;99.90;;;;;;5047016;28;20065;-74
2022/09/16 00:29:51;;;;;;;3.55;0.70;;;11.60;99.90;;;;;;5028038;28;20686;-75
2022/09/16 00:32:17;;;;;;;1.97;0.67;;;11.60;99.90;;;;;;5083598;28;20091;-75
2022/09/16 00:34:42;;;;;;;4.97;0.60;;;11.60;99.90;;;;;;5042546;28;20286;-75
2022/09/16 00:37:08;;;;;;;6.77;0.80;;;11.60;99.90;;;;;;5077570;28;20034;-75
2022/09/16 00:39:35;;;;;;;3.92;0.63;;;11.60;99.90;;;;;;5055646;28;20541;-75
2022/09/16 00:42:02;;;;;;;4.50;0.70;;;11.60;99.90;;;;;;5067770;28;20081;-75
2022/09/16 00:44:58;;;;;;;4.95;0.70;;;11.70;99.90;;;;;;5045447;28;20061;-75
2022/09/16 00:47:50;;;;;;;6.20;0.70;;;11.70;99.90;;;;;;5068778;28;20042;-75
2022/09/16 00:50:44;;;;;;;5.20;0.50;;;11.70;99.90;;;;;;5059846;28;20058;-75
2022/09/16 00:53:33;;;;;;;5.88;0.70;;;11.70;99.90;;;;;;5065057;28;20107;-75
2022/09/16 00:56:04;;;;;;;4.85;1.38;;;11.70;99.90;;;;;;5071971;28;20049;-75
2022/09/16 00:59:18;;;;;;;1.15;0.50;;;11.70;99.90;;;;;;5081267;28;20046;-75
2022/09/16 01:01:45;;;;;;;3.80;0.80;;;11.70;99.90;;;;;;5072518;28;20490;-75
2022/09/16 01:04:21;;;;;;;3.42;0.57;;;11.70;99.90;;;;;;5070771;28;20073;-75
2022/09/16 01:06:48;;;;;;;5.28;0.60;;;11.70;99.90;;;;;;5086871;28;20055;-75
2022/09/16 01:09:15;;;;;;;4.00;0.70;;;11.70;99.90;;;;;;5073760;28;20046;-75
2022/09/16 01:11:40;;;;;;;5.57;0.85;;;11.60;99.90;;;;;;5066917;28;20038;-75
2022/09/16 01:17:19;;;;;;;2.72;0.70;;;11.60;99.90;;;;;;5067731;28;20136;-75
2022/09/16 01:19:57;;;;;;;5.53;1.00;;;11.60;99.90;;;;;;5039049;28;20046;-75
2022/09/16 01:22:38;;;;;;;2.95;0.90;;;11.60;99.90;;;;;;5053153;28;20057;-75
2022/09/16 01:25:07;;;;;;;5.40;0.80;;;11.60;99.90;;;;;;5074617;28;20073;-75
2022/09/16 01:28:00;;;;;;;5.78;1.35;;;11.60;99.90;;;;;;5073443;28;20465;-75
2022/09/16 01:30:47;;;;;;;4.50;0.75;;;11.50;99.90;;;;;;5067948;28;20388;-75
2022/09/16 01:33:33;;;;;;;2.63;0.70;;;11.50;99.90;;;;;;5062737;28;20038;-76
2022/09/16 01:36:24;;;;;;;3.33;0.65;;;11.40;99.90;;;;;;5073146;28;20094;-75
2022/09/16 01:39:01;;;;;;;3.90;0.73;;;11.40;99.90;;;;;;5072692;28;20038;-75
2022/09/16 01:41:27;;;;;;;2.35;0.60;;;11.30;99.90;;;;;;5062562;28;20145;-75
2022/09/16 01:44:19;;;;;;;6.03;0.70;;;11.30;99.90;;;;;;5072247;28;20124;-76
2022/09/16 01:46:59;;;;;;;3.60;0.65;;;11.30;99.90;;;;;;5068021;28;20666;-74
2022/09/16 01:49:46;;;;;;;3.83;0.65;;;11.30;99.90;;;;;;5070593;28;20046;-74
2022/09/16 01:52:18;;;;;;;3.35;0.60;;;11.30;99.90;;;;;;5071894;28;20039;-74
2022/09/16 01:55:03;;;;;;;5.20;1.05;;;11.20;99.90;;;;;;5067310;28;20433;-74
2022/09/16 01:57:49;;;;;;;4.82;1.05;;;11.20;99.90;;;;;;5068780;28;20085;-73
2022/09/16 02:00:15;;;;;;;3.72;0.73;;;11.20;99.90;;;;;;5063640;28;20052;-74
2022/09/16 02:02:57;;;;;;;3.67;0.73;;;11.30;99.90;;;;;;5073432;28;20050;-74
2022/09/16 02:05:28;;;;;;;3.28;0.88;;;11.30;99.90;;;;;;5049263;28;20053;-75
2022/09/16 02:08:04;;;;;;;6.20;0.93;;;11.30;99.90;;;;;;5064275;28;20090;-75
2022/09/16 02:10:37;;;;;;;9.80;1.02;;;11.30;99.90;;;;;;5067166;28;20548;-75
2022/09/16 02:13:11;;;;;;;3.80;0.88;;;11.30;99.90;;;;;;5067155;28;20049;-75
2022/09/16 02:15:39;;;;;;;8.55;1.10;;;11.30;99.90;;;;;;5023641;28;20040;-74
2022/09/16 02:18:10;;;;;;;4.03;0.82;;;11.30;99.90;;;;;;5070854;28;20373;-74
2022/09/16 02:20:39;;;;;;;4.80;0.82;;;11.20;99.90;;;;;;5070904;28;20049;-74
2022/09/16 02:23:13;;;;;;;6.78;0.85;;;11.20;99.90;;;;;;5068574;28;20484;-74
2022/09/16 02:25:41;;;;;;;4.97;0.70;;;11.10;99.90;;;;;;5080602;28;20129;-74
2022/09/16 02:28:12;;;;;;;4.18;0.77;;;11.10;99.90;;;;;;5068242;28;20049;-74
2022/09/16 02:30:41;;;;;;;5.25;0.95;;;11.10;99.90;;;;;;5048081;28;20141;-74
2022/09/16 02:33:09;;;;;;;2.20;0.60;;;11.00;99.90;;;;;;5068507;28;20476;-74
2022/09/16 02:35:37;;;;;;;4.13;0.85;;;11.00;99.90;;;;;;5073341;28;20034;-74
2022/09/16 02:38:19;;;;;;;4.03;0.90;;;11.00;99.90;;;;;;5050120;28;20034;-74
2022/09/16 02:40:58;;;;;;;2.33;0.70;;;11.00;99.90;;;;;;5063379;28;20038;-74
2022/09/16 02:43:25;;;;;;;8.30;0.70;;;11.00;99.90;;;;;;5071098;28;20082;-74
2022/09/16 02:46:14;;;;;;;11.30;1.17;;;11.00;99.90;;;;;;5058388;28;20046;-74
2022/09/16 02:48:58;;;;;;;4.22;1.00;;;11.00;99.90;;;;;;5068641;28;20040;-74
2022/09/16 02:51:45;;;;;;;4.57;0.90;;;11.10;99.90;;;;;;5073904;28;20042;-74
2022/09/16 02:54:17;;;;;;;5.70;1.00;;;11.10;99.90;;;;;;5084348;28;20049;-74
2022/09/16 02:56:43;;;;;;;10.27;1.00;;;11.10;99.90;;;;;;5070637;28;20073;-75
2022/09/16 02:59:11;;;;;;;8.25;1.30;;;11.10;99.90;;;;;;5056021;28;20478;-75
2022/09/16 03:01:40;;;;;;;9.48;1.10;;;11.10;99.90;;;;;;5075624;28;20046;-76
2022/09/16 03:04:08;;;;;;;8.18;1.00;;;11.10;99.90;;;;;;5076498;28;20088;-75
2022/09/16 03:06:35;;;;;;;6.18;1.00;;;11.10;99.90;;;;;;5047975;28;20403;-76
2022/09/16 03:09:03;;;;;;;5.38;0.93;;;11.10;99.90;;;;;;5084783;28;20048;-75
2022/09/16 03:12:00;;;;;;;10.15;1.13;;;11.10;99.90;;;;;;5066309;28;20239;-76
2022/09/16 03:14:47;;;;;;;4.95;1.00;;;11.10;99.90;;;;;;5053862;28;20435;-76
2022/09/16 03:17:21;;;;;;;4.15;0.73;;;11.10;99.90;;;;;;5071988;28;20042;-76
2022/09/16 03:19:56;;;;;;;3.50;0.70;;;11.10;99.90;;;;;;5046084;28;20075;-75
2022/09/16 03:22:44;;;;;;;4.55;1.05;;;11.10;99.90;;;;;;5072410;28;20041;-74
2022/09/16 03:25:27;;;;;;;4.85;0.73;;;11.10;99.90;;;;;;5057050;28;20057;-75
2022/09/16 03:28:08;;;;;;;3.53;0.70;;;11.00;99.90;;;;;;5075003;28;20426;-75
2022/09/16 03:30:42;;;;;;;7.00;0.80;;;10.90;99.90;;;;;;5062645;28;20403;-75
2022/09/16 03:33:34;;;;;;;3.85;0.80;;;10.80;99.90;;;;;;5050336;28;20113;-75
2022/09/16 03:36:04;;;;;;;6.07;0.90;;;10.80;99.90;;;;;;5068776;28;20078;-75
2022/09/16 03:38:32;;;;;;;6.18;0.80;;;10.70;99.90;;;;;;5073920;28;20052;-75
2022/09/16 03:40:58;;;;;;;6.82;0.93;;;10.70;99.90;;;;;;5067968;28;20068;-75
2022/09/16 03:43:24;;;;;;;4.25;0.88;;;10.50;99.90;;;;;;5074557;28;20511;-75
2022/09/16 03:45:50;;;;;;;3.90;0.70;;;10.50;99.90;;;;;;5085071;28;20071;-75
2022/09/16 03:48:16;;;;;;;4.75;1.00;;;10.50;99.90;;;;;;5069143;28;20277;-76
2022/09/16 03:50:42;;;;;;;11.40;1.30;;;10.50;99.90;;;;;;5071202;28;20064;-76
2022/09/16 03:53:07;;;;;;;7.40;1.38;;;10.50;99.90;;;;;;5070594;28;20042;-75
2022/09/16 03:55:33;;;;;;;11.32;0.93;;;10.60;99.90;;;;;;5073825;28;20042;-75
2022/09/16 03:57:59;;;;;;;7.20;1.63;;;10.60;99.90;;;;;;5075561;28;20038;-75
2022/09/16 04:00:24;;;;;;;5.10;0.93;;;10.60;99.90;;;;;;5080399;28;20282;-75
2022/09/16 04:02:50;;;;;;;5.97;1.00;;;10.60;99.90;;;;;;5065399;28;20038;-75
2022/09/16 04:05:16;;;;;;;7.07;0.90;;;10.60;99.90;;;;;;5049498;28;20038;-75
2022/09/16 04:07:41;;;;;;;4.22;0.80;;;10.50;99.90;;;;;;5030359;28;20055;-75
2022/09/16 04:10:07;;;;;;;6.50;1.27;;;10.50;99.90;;;;;;5068941;28;20384;-75
2022/09/16 04:12:33;;;;;;;5.85;0.80;;;10.40;99.90;;;;;;5071395;28;20053;-75
2022/09/16 04:14:59;;;;;;;7.35;0.80;;;10.40;99.90;;;;;;5052119;28;20049;-76
2022/09/16 04:17:24;;;;;;;4.90;0.73;;;10.30;99.90;;;;;;5070956;28;20042;-76
2022/09/16 04:19:52;;;;;;;4.97;0.95;;;10.20;99.90;;;;;;5071508;28;20497;-75
2022/09/16 04:22:18;;;;;;;4.13;0.80;;;10.20;99.90;;;;;;5072336;28;20054;-75
2022/09/16 04:24:43;;;;;;;5.95;0.75;;;10.10;99.90;;;;;;5073150;28;20109;-74
2022/09/16 04:27:09;;;;;;;6.37;1.23;;;10.10;99.90;;;;;;5068683;28;20369;-73
2022/09/16 04:29:35;;;;;;;6.45;1.35;;;10.10;99.90;;;;;;5066564;28;20650;-74
2022/09/16 04:32:01;;;;;;;11.32;0.90;;;10.00;99.90;;;;;;5063238;28;20099;-74
2022/09/16 04:34:27;;;;;;;8.50;1.05;;;10.00;99.90;;;;;;5070919;28;20388;-74
2022/09/16 04:36:53;;;;;;;6.10;0.90;;;10.00;99.90;;;;;;5075624;28;20064;-73
2022/09/16 04:39:18;;;;;;;6.13;1.10;;;10.00;99.90;;;;;;5066053;28;20053;-74
2022/09/16 04:41:44;;;;;;;10.70;1.00;;;10.00;99.90;;;;;;5066204;28;20064;-74
2022/09/16 04:44:10;;;;;;;9.33;1.27;;;9.90;99.90;;;;;;5054075;28;20116;-74
2022/09/16 04:46:36;;;;;;;5.20;1.15;;;9.80;99.90;;;;;;5061175;28;20298;-74
2022/09/16 04:49:02;;;;;;;6.70;0.93;;;9.90;99.90;;;;;;5077841;28;20054;-74
2022/09/16 04:51:28;;;;;;;11.73;1.40;;;9.80;99.90;;;;;;5062464;28;20126;-74
2022/09/16 04:53:55;;;;;;;4.68;1.10;;;9.90;99.90;;;;;;5062767;28;20511;-73
2022/09/16 04:56:24;;;;;;;10.18;1.38;;;9.90;99.90;;;;;;5078232;28;20077;-75
2022/09/16 04:58:52;;;;;;;13.95;1.38;;;9.90;99.90;;;;;;5017751;28;20046;-75
2022/09/16 05:01:20;;;;;;;7.55;1.00;;;10.00;99.90;;;;;;5077949;28;20038;-75
2022/09/16 05:03:49;;;;;;;10.50;1.08;;;10.50;99.90;;;;;;5078190;28;20040;-75
2022/09/16 05:06:23;;;;;;;5.40;1.00;;;10.00;99.90;;;;;;5056319;28;20037;-75
2022/09/16 05:08:50;;;;;;;7.03;1.00;;;10.10;99.90;;;;;;5074777;28;20036;-75
2022/09/16 05:11:23;;;;;;;9.73;1.33;;;10.00;99.90;;;;;;5064052;28;20042;-75
2022/09/16 05:13:49;;;;;;;6.22;1.10;;;10.10;99.90;;;;;;5070244;28;20035;-75
2022/09/16 05:16:20;;;;;;;6.40;1.25;;;10.30;99.90;;;;;;5067401;28;20113;-75
2022/09/16 05:18:47;;;;;;;8.10;1.05;;;10.10;99.90;;;;;;5070665;28;20040;-75
2022/09/16 05:21:19;;;;;;;6.95;1.23;;;10.10;99.90;;;;;;5054749;28;20046;-75
2022/09/16 05:23:45;;;;;;;7.20;0.90;;;10.10;99.90;;;;;;5070756;28;20058;-75
2022/09/16 05:26:15;;;;;;;;;;;10.10;99.90;;;;;;5065752;28;20034;-75
2022/09/16 05:28:42;;;;;;;5.35;0.80;;;10.10;99.90;;;;;;5075474;28;20007;-75
2022/09/16 05:31:07;;;;;;;7.30;1.30;;;10.00;99.90;;;;;;5068452;28;20048;-75
2022/09/16 05:33:33;;;;;;;8.00;1.27;;;10.00;99.90;;;;;;5070663;28;20042;-75
2022/09/16 05:36:07;;;;;;;6.87;1.23;;;10.00;99.90;;;;;;5070616;28;20033;-75
2022/09/16 05:38:33;;;;;;;8.02;1.40;;;10.00;99.90;;;;;;5070809;28;20380;-75
2022/09/16 05:41:03;;;;;;;7.13;1.00;;;10.00;99.90;;;;;;5074155;28;20057;-75
2022/09/16 05:43:29;;;;;;;5.70;0.90;;;10.00;99.90;;;;;;5083964;28;20464;-75
2022/09/16 05:45:55;;;;;;;8.98;1.08;;;10.10;99.90;;;;;;5071758;28;20088;-74
2022/09/16 05:48:22;;;;;;;8.40;1.42;;;10.10;99.90;;;;;;5062940;28;20057;-75
2022/09/16 05:50:52;;;;;;;11.32;1.27;;;10.10;99.90;;;;;;5070870;28;20047;-75
2022/09/16 05:53:18;;;;;;;8.55;1.13;;;10.10;99.90;;;;;;5066670;28;20029;-74
2022/09/16 05:55:53;;;;;;;10.70;1.40;;;10.20;99.90;;;;;;5065222;28;20696;-74
2022/09/16 05:58:23;;;;;;;5.15;1.05;;;10.20;99.90;;;;;;5063207;28;20300;-74
2022/09/16 06:00:49;;;;;;;7.82;1.27;;;10.30;99.90;;;;;;5058507;28;20042;-75
2022/09/16 06:03:15;;;;;;;10.75;1.42;;;10.30;99.90;;;;;;5060093;28;20483;-74
2022/09/16 06:05:41;;;;;;;5.00;1.02;;;10.40;99.90;;;;;;5052393;28;20038;-75
2022/09/16 06:08:06;;;;;;;10.82;0.90;;;10.60;99.90;;;;;;5038644;28;20044;-75
2022/09/16 06:10:37;;;;;;;10.93;1.30;;;10.70;99.90;;;;;;5077131;28;20435;-75
2022/09/16 06:13:02;;;;;;;7.80;1.25;;;10.80;99.90;;;;;;5062525;28;20286;-74
2022/09/16 06:15:28;;;;;;;13.57;1.53;;;10.90;99.90;;;;;;5084761;28;20096;-75
2022/09/16 06:17:54;;;;;;;10.23;2.00;;;11.00;99.90;;;;;;5076144;28;20080;-75
2022/09/16 06:20:20;;;;;;;9.53;1.07;;;11.10;99.90;;;;;;5071336;28;20069;-76
2022/09/16 06:22:45;;;;;;;13.00;1.73;;;11.10;99.90;;;;;;5048358;28;20062;-75
2022/09/16 06:25:11;;;;;;;7.57;2.00;;;11.10;99.90;;;;;;5074978;28;20405;-75
2022/09/16 06:27:37;;;;;;;6.80;1.10;;;11.10;99.90;;;;;;5048771;28;20292;-75
2022/09/16 06:30:03;;;;;;;9.07;1.47;;;11.10;99.90;;;;;;5080822;28;20053;-75
2022/09/16 06:32:32;;;;;;;8.57;1.73;;;11.20;99.90;;;;;;5076249;28;20115;-75
2022/09/16 06:34:58;;;;;;;7.25;1.23;;;11.30;99.90;;;;;;5072259;28;20042;-75
2022/09/16 06:37:25;;;;;;;10.80;1.40;;;11.40;99.90;;;;;;5070768;28;20493;-75
2022/09/16 06:39:50;;;;;;;5.47;1.23;;;11.60;99.90;;;;;;5079901;28;20120;-75
2022/09/16 06:42:16;;;;;;;10.02;1.55;;;11.80;99.90;;;;;;5069544;28;20084;-75
2022/09/16 06:44:42;;;;;;;8.52;1.40;;;12.00;99.90;;;;;;5072678;28;20061;-75
2022/09/16 06:47:08;;;;;;;7.85;1.50;;;12.10;99.90;;;;;;5063905;28;20115;-75
2022/09/16 06:49:34;;;;;;;13.25;2.00;;;12.30;99.90;;;;;;5078106;28;20483;-75
2022/09/16 06:52:00;;;;;;;9.33;1.00;;;12.50;99.90;;;;;;5075856;28;20057;-75
2022/09/16 06:54:26;;;;;;;8.98;1.08;;;12.70;99.90;;;;;;5080553;28;20062;-75
2022/09/16 06:56:51;;;;;;;6.90;1.15;;;13.00;99.90;;;;;;5057566;28;20044;-74
2022/09/16 06:59:17;;;;;;;11.25;1.60;;;13.10;99.90;;;;;;5049062;28;20045;-75
2022/09/16 07:01:43;;;;;;;7.67;1.40;;;13.30;99.90;;;;;;5078032;28;20091;-75
2022/09/16 07:04:11;;;;;;;9.43;1.50;;;13.40;99.90;;;;;;5067084;28;20049;-74
2022/09/16 07:06:38;;;;;;;8.95;1.40;;;13.50;99.90;;;;;;5069615;28;20046;-74
2022/09/16 07:09:04;;;;;;;8.55;1.23;;;13.70;99.90;;;;;;5064389;28;20407;-75
2022/09/16 07:11:30;;;;;;;11.85;1.73;;;13.90;99.90;;;;;;5076974;28;20403;-74
2022/09/16 07:13:58;;;;;;;6.28;1.10;;;14.00;99.90;;;;;;5068380;28;20035;-74
2022/09/16 07:16:25;;;;;;;16.30;2.13;;;13.90;99.90;;;;;;5076745;28;20042;-74
2022/09/16 07:18:55;;;;;;;9.90;1.83;;;13.90;99.90;;;;;;5077833;28;20502;-74
2022/09/16 07:21:24;;;;;;;9.00;1.55;;;13.80;99.90;;;;;;5077335;28;20046;-74
2022/09/16 07:23:53;;;;;;;9.27;1.60;;;13.70;99.90;;;;;;5040399;28;20056;-74
2022/09/16 07:26:27;;;;;;;8.15;1.10;;;14.10;99.90;;;;;;5069713;28;20044;-75
2022/09/16 07:28:54;;;;;;;8.93;1.48;;;14.90;99.90;;;;;;5083720;28;20466;-74
2022/09/16 07:31:29;;;;;;;9.32;1.30;;;15.60;99.90;;;;;;5073448;28;20482;-74
2022/09/16 07:33:56;;;;;;;12.57;1.70;;;16.20;99.90;;;;;;5075690;28;20091;-75
2022/09/16 07:36:25;;;;;;;6.50;1.30;;;16.70;99.90;;;;;;5080740;28;20041;-75
2022/09/16 07:38:51;;;;;;;6.75;1.45;;;17.10;99.90;;;;;;5084295;28;20138;-75
2022/09/16 07:41:22;;;;;;;5.82;1.40;;;17.20;99.90;;;;;;5083412;28;20077;-75
2022/09/16 07:43:49;;;;;;;8.23;1.55;;;17.20;99.90;;;;;;5088083;28;20075;-76
2022/09/16 07:46:17;;;;;;;9.77;1.50;;;17.50;99.90;;;;;;5077472;28;20098;-76
2022/09/16 07:48:44;;;;;;;8.18;1.42;;;17.50;99.90;;;;;;5079103;28;20119;-76
2022/09/16 07:51:12;;;;;;;7.88;1.30;;;17.70;99.90;;;;;;5038440;28;20390;-76
2022/09/16 07:53:39;;;;;;;9.20;1.13;;;17.70;99.90;;;;;;5083605;28;20040;-76
2022/09/16 07:56:09;;;;;;;6.47;1.58;;;17.50;99.90;;;;;;5076134;28;20055;-76
2022/09/16 07:58:35;;;;;;;6.63;1.10;;;16.80;99.90;;;;;;5080531;28;20029;-76
2022/09/16 08:01:01;;;;;;;;;;;16.20;99.90;;;;;;5080922;28;20124;-76
2022/09/16 08:03:28;;;;;;;9.90;1.40;;;15.90;99.90;;;;;;5085117;28;19931;-76
2022/09/16 08:06:02;;;;;;;5.88;1.00;;;15.80;99.90;;;;;;5077414;28;20416;-77
2022/09/16 08:08:30;;;;;;;7.88;1.58;;;15.90;99.90;;;;;;5077824;28;20047;-77
2022/09/16 08:10:57;;;;;;;10.43;1.70;;;16.30;99.90;;;;;;5070092;28;20119;-77
2022/09/16 08:13:23;;;;;;;9.70;1.80;;;16.90;99.90;;;;;;5080694;28;20041;-77
2022/09/16 08:15:48;;;;;;;8.80;1.70;;;17.50;99.90;;;;;;5083681;28;20111;-77
2022/09/16 08:18:14;;;;;;;9.30;1.33;;;18.00;99.90;;;;;;5067191;28;20116;-77
2022/09/16 08:20:40;;;;;;;14.40;2.03;;;18.60;99.90;;;;;;5078435;28;20048;-77
2022/09/16 08:23:06;;;;;;;5.88;1.33;;;19.00;99.90;;;;;;5053460;28;20496;-77
2022/09/16 08:25:32;;;;;;;10.57;2.28;;;19.30;99.90;;;;;;5050937;28;20044;-78
2022/09/16 08:27:58;;;;;;;7.25;1.30;;;19.80;99.90;;;;;;5004127;28;20398;-78
2022/09/16 08:30:23;;;;;;;8.25;1.45;;;20.00;99.90;;;;;;5042188;28;20406;-78
2022/09/16 08:32:59;;;;;;;8.55;1.45;;;20.20;99.90;;;;;;5028590;28;20529;-77
2022/09/16 08:35:25;;;;;;;6.95;1.15;;;20.40;99.90;;;;;;5050090;28;20041;-77
2022/09/16 08:37:51;;;;;;;5.70;1.20;;;20.70;99.90;;;;;;5021099;28;20411;-76
2022/09/16 08:40:23;;;;;;;7.43;1.23;;;21.00;99.90;;;;;;5049870;28;20105;-77
2022/09/16 08:43:19;;;;;;;7.82;1.33;;;21.30;99.90;;;;;;5013775;28;20407;-76
2022/09/16 08:45:48;;;;;;;6.03;1.00;;;21.30;99.90;;;;;;5048202;28;20052;-77
2022/09/16 08:48:47;;;;;;;7.53;1.00;;;21.30;99.20;;;;;;5014466;28;20037;-77
2022/09/16 08:51:17;;;;;;;6.57;1.30;;;21.30;98.90;;;;;;5001104;28;20064;-77
2022/09/16 08:53:51;;;;;;;8.60;1.08;;;21.20;99.50;;;;;;5035702;28;20821;-77
2022/09/16 08:56:21;;;;;;;6.55;1.10;;;21.40;98.10;;;;;;5030689;28;20038;-77
2022/09/16 08:58:54;;;;;;;6.72;1.05;;;21.20;98.50;;;;;;4997587;28;20045;-76
2022/09/16 09:01:33;;;;;;;6.20;0.80;;;21.60;98.60;;;;;;5008737;28;20043;-77
2022/09/16 09:04:00;;;;;;;7.03;1.40;;;21.50;98.40;;;;;;5040230;28;20128;-77
2022/09/16 09:06:58;;;;;;;6.43;0.82;;;21.70;97.20;;;;;;5024304;28;20530;-77
2022/09/16 09:09:42;;;;;;;7.43;1.23;;;21.80;98.50;;;;;;5024937;28;20068;-78
2022/09/16 09:12:44;;;;;;;11.40;1.10;;;20.80;97.40;;;;;;5027537;28;20094;-78
2022/09/16 09:15:25;;;;;;;9.13;1.30;;;20.50;98.80;;;;;;5006978;28;20102;-78
2022/09/16 09:18:01;;;;;;;6.28;1.00;;;19.90;99.10;;;;;;5020237;28;20549;-78
2022/09/16 09:20:30;;;;;;;;;;;20.20;99.90;;;;;;5030540;28;20096;-78
2022/09/16 09:23:27;;;;;;;9.10;1.58;;;20.60;99.30;;;;;;5040404;28;19973;-78
2022/09/16 09:25:57;;;;;;;7.60;1.13;;;21.30;98.10;;;;;;5074665;28;21674;-78
2022/09/16 09:28:31;;;;;;;7.30;1.35;;;21.00;97.60;;;;;;5078495;28;20127;-78
2022/09/16 09:31:23;;;;;;;8.05;1.40;;;20.80;98.60;;;;;;5058541;28;20043;-78
2022/09/16 09:34:03;;;;;;;5.88;1.35;;;19.80;99.00;;;;;;5057595;28;20048;-78
2022/09/16 09:36:55;;;;;;;7.70;1.35;;;19.20;99.50;;;;;;5081241;28;20040;-78
2022/09/16 09:39:36;;;;;;;5.43;0.85;;;19.60;99.90;;;;;;5079659;28;20493;-78
2022/09/16 09:42:08;;;;;;;5.13;1.10;;;20.40;98.70;;;;;;5053098;28;20041;-78
2022/09/16 09:45:02;;;;;;;5.38;0.88;;;21.00;97.70;;;;;;5076353;28;20052;-78
2022/09/16 09:47:48;;;;;;;6.20;1.05;;;21.30;97.00;;;;;;5081441;28;20090;-77
2022/09/16 09:50:28;;;;;;;9.57;0.90;;;21.80;97.10;;;;;;5068628;28;20040;-76
2022/09/16 09:53:18;;;;;;;6.90;1.02;;;21.90;96.00;;;;;;5079702;28;20111;-77
2022/09/16 09:55:44;;;;;;;6.25;1.00;;;21.30;95.10;;;;;;5077252;28;20063;-77
2022/09/16 09:58:34;;;;;;;7.00;1.10;;;20.50;96.40;;;;;;5082512;28;20042;-77
2022/09/16 10:01:00;;;;;;;5.95;1.02;;;20.70;96.90;;;;;;5076997;28;20056;-77
2022/09/16 10:03:29;;;;;;;8.68;1.10;;;21.30;96.50;;;;;;5067177;28;20037;-77
2022/09/16 10:05:55;;;;;;;5.53;1.10;;;21.50;96.40;;;;;;5081553;28;20054;-76
2022/09/16 10:08:28;;;;;;;5.18;1.02;;;21.80;96.50;;;;;;5083884;28;20040;-76
2022/09/16 10:11:00;;;;;;;8.75;1.60;;;22.40;96.90;;;;;;5083272;28;20123;-77
2022/09/16 10:13:28;;;;;;;9.68;1.80;;;22.10;99.30;;;;;;5079728;28;20389;-77
2022/09/16 10:16:12;;;;;;;6.97;1.00;;;21.70;99.80;;;;;;5084640;28;20085;-77
2022/09/16 10:18:38;;;;;;;5.90;1.38;;;20.80;99.00;;;;;;5079450;28;20393;-77
2022/09/16 10:21:15;;;;;;;6.63;1.00;;;20.60;99.10;;;;;;5081235;28;20047;-77
2022/09/16 10:23:53;;;;;;;6.60;0.88;;;20.50;99.60;;;;;;5081154;28;20131;-76
2022/09/16 10:26:24;;;;;;;4.20;0.70;;;21.00;99.40;;;;;;5085729;28;20119;-76
2022/09/16 10:29:02;;;;;;;7.75;0.93;;;21.90;98.30;;;;;;5083633;28;20044;-76
2022/09/16 10:31:36;;;;;;;7.70;0.70;;;22.00;96.10;;;;;;5074199;28;20036;-78
2022/09/16 10:34:04;;;;;;;6.70;1.30;;;22.00;95.80;;;;;;5078380;28;20508;-76
2022/09/16 10:36:33;;;;;;;5.57;1.00;;;21.90;96.20;;;;;;5083770;28;20043;-76
2022/09/16 10:39:01;;;;;;;9.73;1.17;;;20.90;95.90;;;;;;5086916;28;20513;-76
2022/09/16 10:41:31;;;;;;;7.03;1.17;;;20.20;96.30;;;;;;5080225;28;20036;-76
2022/09/16 10:44:00;;;;;;;6.80;1.20;;;19.80;97.30;;;;;;5077026;28;20032;-76
2022/09/16 10:46:27;;;;;;;4.72;0.90;;;20.30;98.10;;;;;;5060995;28;20028;-76
2022/09/16 10:48:58;;;;;;;5.80;1.10;;;20.80;97.30;;;;;;5077767;28;20075;-76
2022/09/16 10:51:30;;;;;;;7.68;0.80;;;21.30;97.40;;;;;;5079585;28;20041;-76
2022/09/16 10:54:02;;;;;;;8.20;1.05;;;21.40;96.40;;;;;;5079201;28;20044;-76
2022/09/16 10:56:33;;;;;;;8.43;0.75;;;20.90;96.90;;;;;;5085354;28;20036;-75
2022/09/16 10:59:09;;;;;;;4.13;0.70;;;20.20;95.90;;;;;;5082200;28;20036;-75
2022/09/16 11:01:52;;;;;;;7.05;0.80;;;19.90;96.70;;;;;;5087165;28;20093;-75
2022/09/16 11:04:36;;;;;;;7.53;1.00;;;20.50;97.10;;;;;;5067180;28;20064;-75
2022/09/16 11:07:27;;;;;;;4.93;0.98;;;21.10;97.50;;;;;;5086911;28;20040;-76
2022/09/16 11:10:14;;;;;;;7.60;1.02;;;21.80;96.40;;;;;;5044996;28;20090;-76
2022/09/16 11:12:58;;;;;;;8.73;1.20;;;22.20;95.60;;;;;;5076206;28;20040;-77
2022/09/16 11:15:40;;;;;;;7.82;1.10;;;22.40;95.90;;;;;;5079079;28;20386;-77
2022/09/16 11:18:28;;;;;;;10.40;1.50;;;22.60;95.90;;;;;;5078719;28;20040;-77
2022/09/16 11:21:12;;;;;;;10.18;1.30;;;22.00;94.90;;;;;;5078968;28;20040;-77
2022/09/16 11:23:50;;;;;;;9.35;1.60;;;21.10;94.90;;;;;;5077495;28;20048;-76
2022/09/16 11:27:01;;;;;;;7.07;1.33;;;20.30;95.20;;;;;;5078440;28;20512;-76
2022/09/16 11:29:32;;;;;;;4.95;1.10;;;20.60;96.80;;;;;;5025091;28;20048;-76
2022/09/16 11:32:21;;;;;;;5.60;1.25;;;21.00;95.30;;;;;;5079364;28;20055;-76
2022/09/16 11:35:23;;;;;;;10.20;1.48;;;20.80;94.70;;;;;;5081821;28;20094;-77
2022/09/16 11:38:08;;;;;;;6.68;1.48;;;20.90;94.30;;;;;;5048012;28;20151;-77
2022/09/16 11:40:57;;;;;;;8.25;1.52;;;21.20;95.30;;;;;;5081066;28;20082;-77
2022/09/16 11:43:54;;;;;;;8.35;1.67;;;21.30;94.80;;;;;;5078971;28;20052;-77
2022/09/16 11:46:49;;;;;;;11.10;1.20;;;21.30;94.10;;;;;;5062428;28;21581;-77
2022/09/16 11:49:31;;;;;;;6.63;1.70;;;21.30;94.20;;;;;;5078172;28;20089;-76
2022/09/16 11:52:07;;;;;;;9.25;1.45;;;21.60;94.80;;;;;;5074573;28;20470;-77
2022/09/16 11:54:39;;;;;;;9.68;1.42;;;21.90;94.70;;;;;;5079304;28;20041;-77
2022/09/16 11:57:13;;;;;;;12.43;1.95;;;22.40;94.90;;;;;;5063613;28;20038;-77
2022/09/16 12:00:01;;;;;;;10.27;1.88;;;22.70;95.30;;;;;;5077607;28;20397;-77
2022/09/16 12:02:39;;;;;;;16.40;1.77;;;22.60;94.70;;;;;;5081660;28;20089;-76
2022/09/16 12:05:20;;;;;;;15.32;1.65;;;22.90;95.20;;;;;;5086247;28;20044;-77
2022/09/16 12:08:04;;;;;;;9.77;1.52;;;23.00;93.80;;;;;;5077684;28;20191;-76
2022/09/16 12:10:38;;;;;;;7.65;1.40;;;23.00;93.10;;;;;;5066712;28;20047;-75
2022/09/16 12:13:14;;;;;;;10.63;1.70;;;22.30;93.60;;;;;;5057025;28;20123;-76
2022/09/16 12:16:15;;;;;;;13.65;2.08;;;22.10;94.30;;;;;;5056974;28;20118;-77
2022/09/16 12:18:51;;;;;;;10.32;1.73;;;21.80;94.40;;;;;;5018078;28;20040;-75
2022/09/16 12:21:42;;;;;;;11.43;2.05;;;21.10;94.40;;;;;;5065876;28;20119;-75
2022/09/16 12:24:38;;;;;;;13.80;2.10;;;20.80;95.50;;;;;;5066837;28;20057;-76
2022/09/16 12:27:51;;;;;;;8.93;1.48;;;20.00;95.70;;;;;;5087021;28;20036;-76
2022/09/16 12:30:20;;;;;;;11.80;1.85;;;19.80;95.40;;;;;;5067123;28;20118;-76
2022/09/16 12:33:11;;;;;;;12.45;2.05;;;19.70;95.40;;;;;;5078257;28;20387;-76
2022/09/16 12:35:41;;;;;;;9.73;1.80;;;19.70;96.70;;;;;;5072307;28;20048;-76
2022/09/16 12:38:17;;;;;;;9.02;2.03;;;19.90;95.90;;;;;;5073034;28;20115;-76
2022/09/16 12:40:46;;;;;;;11.38;1.85;;;20.20;96.40;;;;;;5072077;28;20071;-77
2022/09/16 12:43:46;;;;;;;11.35;2.00;;;20.20;96.50;;;;;;5073441;28;20040;-76
2022/09/16 12:46:28;;;;;;;11.18;2.25;;;20.10;96.30;;;;;;5063611;28;20044;-77
2022/09/16 12:49:21;;;;;;;10.23;1.55;;;19.70;98.30;;;;;;5077917;28;20044;-77
2022/09/16 12:52:20;;;;;;;6.68;1.20;;;19.00;99.90;;;;;;5079924;28;20063;-76
2022/09/16 12:55:05;;;;;;;7.20;1.30;;;18.60;99.90;;;;;;5082372;28;20036;-75
2022/09/16 12:57:49;;;;;;;8.63;1.30;;;18.50;99.90;;;;;;5080459;28;20500;-75
2022/09/16 13:00:19;;;;;;;5.95;0.98;;;18.60;99.90;;;;;;5056935;28;20036;-75
2022/09/16 13:03:12;;;;;;;6.90;1.10;;;18.70;99.90;;;;;;5084536;28;20381;-76
2022/09/16 13:05:38;;;;;;;14.15;1.48;;;18.50;99.90;;;;;;5074123;28;20048;-76
2022/09/16 13:08:16;;;;;;;7.72;1.35;;;18.80;99.90;;;;;;5084575;28;20079;-76
2022/09/16 13:10:42;;;;;;;7.70;0.82;;;18.60;99.90;;;;;;5077124;28;20392;-76
2022/09/16 13:13:18;;;;;;;2.65;0.30;;;18.50;99.70;;;;;;5082635;28;20479;-76
2022/09/16 13:15:55;;;;;;;3.85;0.80;;;18.60;98.40;;;;;;5073228;28;20055;-75
2022/09/16 13:18:37;;;;;;;3.20;0.55;;;18.60;98.40;;;;;;5080366;28;20162;-75
2022/09/16 13:21:20;;;;;;;6.65;0.68;;;18.50;98.00;;;;;;5078267;28;20048;-76